Time;durP1;ratioP1;P1;durP2;ratioP2;P2;SDS_P1;SDS_P2;PMS_P1;PMS_P2;Temp;Humidity;BMP_temperature;BMP_pressure;BME280_temperature;BME280_humidity;BME280_pressure;Samples;Min_cycle;Max_cycle;Signal;HPM_P1;HPM_P2
2022/03/25 00:02:05;;;;;;;45.63;34.97;;;9.90;70.30;;;;;;5086659;28;20632;-79
2022/03/25 00:04:32;;;;;;;44.77;34.20;;;9.70;70.60;;;;;;5089039;28;20776;-79
2022/03/25 00:07:02;;;;;;;45.23;34.87;;;9.70;75.20;;;;;;5082648;28;20301;-79
2022/03/25 00:09:29;;;;;;;46.67;34.70;;;9.70;75.70;;;;;;5088548;28;20219;-79
2022/03/25 00:11:56;;;;;;;45.27;33.20;;;9.80;76.80;;;;;;5085755;28;20217;-79
2022/03/25 00:14:24;;;;;;;42.87;32.53;;;9.90;78.80;;;;;;5084830;28;20202;-80
2022/03/25 00:16:55;;;;;;;42.77;33.87;;;9.90;80.50;;;;;;5083114;28;20197;-80
2022/03/25 00:19:23;;;;;;;43.77;35.10;;;9.90;81.20;;;;;;5076957;28;20220;-79
2022/03/25 00:22:14;;;;;;;47.67;35.50;;;9.90;80.60;;;;;;5082059;28;20221;-79
2022/03/25 00:24:41;;;;;;;47.70;35.17;;;9.80;81.20;;;;;;5089942;28;20643;-79
2022/03/25 00:27:09;;;;;;;42.47;33.50;;;9.70;81.60;;;;;;5078395;28;20198;-79
2022/03/25 00:29:37;;;;;;;48.73;33.77;;;9.60;82.00;;;;;;5090700;28;20216;-78
2022/03/25 00:32:06;;;;;;;48.57;34.40;;;9.60;82.30;;;;;;5087880;28;20201;-79
2022/03/25 00:34:34;;;;;;;44.00;34.73;;;9.60;83.10;;;;;;5077301;28;20268;-79
2022/03/25 00:37:01;;;;;;;46.10;35.60;;;9.60;82.70;;;;;;5076699;28;20197;-79
2022/03/25 00:39:31;;;;;;;45.90;34.77;;;9.70;82.40;;;;;;5075184;28;20201;-79
2022/03/25 00:41:58;;;;;;;40.57;31.50;;;9.40;82.00;;;;;;5086364;28;20206;-79
2022/03/25 00:44:26;;;;;;;44.40;33.17;;;9.30;83.50;;;;;;5084971;28;20207;-78
2022/03/25 00:46:53;;;;;;;46.43;33.53;;;9.20;87.30;;;;;;5084790;28;20197;-79
2022/03/25 00:49:22;;;;;;;42.43;32.37;;;8.90;87.20;;;;;;5079931;28;20210;-80
2022/03/25 00:51:50;;;;;;;44.83;33.67;;;9.00;89.40;;;;;;5089691;28;20200;-79
2022/03/25 00:54:17;;;;;;;41.30;32.57;;;9.20;90.70;;;;;;5085166;28;20197;-82
2022/03/25 00:56:47;;;;;;;43.20;33.60;;;9.30;91.00;;;;;;5075113;28;20217;-79
2022/03/25 00:59:15;;;;;;;42.07;32.83;;;9.40;89.80;;;;;;5087033;28;20205;-79
2022/03/25 01:01:43;;;;;;;40.83;31.27;;;9.40;88.40;;;;;;5084180;28;20193;-79
2022/03/25 01:04:11;;;;;;;39.17;30.13;;;9.30;89.40;;;;;;5083369;28;20712;-79
2022/03/25 01:06:40;;;;;;;39.77;30.57;;;9.20;90.00;;;;;;5075000;28;20579;-79
2022/03/25 01:09:07;;;;;;;42.77;33.27;;;9.20;90.70;;;;;;5077000;28;20224;-79
2022/03/25 01:11:39;;;;;;;43.13;32.53;;;9.20;91.30;;;;;;5088447;28;20209;-78
2022/03/25 01:14:08;;;;;;;43.93;34.23;;;9.10;91.40;;;;;;5082048;28;20205;-79
2022/03/25 01:16:35;;;;;;;43.67;34.10;;;9.00;91.80;;;;;;5084527;28;20213;-79
2022/03/25 01:19:04;;;;;;;43.57;32.87;;;9.10;91.60;;;;;;5083735;28;20198;-79
2022/03/25 01:21:31;;;;;;;45.53;32.43;;;9.30;90.60;;;;;;5088644;28;20205;-78
2022/03/25 01:24:00;;;;;;;43.33;33.43;;;9.00;89.90;;;;;;5084452;28;20192;-78
2022/03/25 01:26:28;;;;;;;42.33;32.87;;;8.90;90.60;;;;;;5072764;28;20236;-79
2022/03/25 01:28:55;;;;;;;42.97;31.80;;;8.90;91.60;;;;;;5083554;28;20196;-79
2022/03/25 01:31:23;;;;;;;43.27;33.40;;;8.70;91.70;;;;;;5087825;28;20208;-79
2022/03/25 01:33:59;;;;;;;41.93;33.17;;;8.30;92.60;;;;;;5088397;28;20200;-79
2022/03/25 01:36:27;;;;;;;41.97;32.67;;;8.60;93.60;;;;;;5073699;28;20236;-79
2022/03/25 01:38:54;;;;;;;43.50;32.50;;;8.80;93.60;;;;;;5082979;28;20201;-78
2022/03/25 01:41:23;;;;;;;41.63;32.67;;;8.80;93.20;;;;;;5074890;28;20205;-79
2022/03/25 01:43:56;;;;;;;42.47;32.10;;;8.80;93.70;;;;;;5081513;28;20205;-79
2022/03/25 01:46:24;;;;;;;42.30;32.63;;;8.70;93.80;;;;;;5077239;28;20213;-79
2022/03/25 01:48:52;;;;;;;40.60;31.53;;;8.80;92.80;;;;;;5080804;28;20197;-79
2022/03/25 01:51:24;;;;;;;43.97;32.83;;;8.60;92.90;;;;;;5072222;28;20204;-79
2022/03/25 01:53:51;;;;;;;43.47;32.37;;;8.70;93.60;;;;;;5080843;28;20194;-79
2022/03/25 01:56:22;;;;;;;42.13;31.87;;;8.80;92.70;;;;;;5072969;28;20235;-79
2022/03/25 01:58:52;;;;;;;44.27;31.80;;;8.90;92.00;;;;;;5082460;28;20189;-79
2022/03/25 02:01:20;;;;;;;41.93;31.97;;;8.80;92.90;;;;;;5074339;28;20202;-79
2022/03/25 02:03:48;;;;;;;40.87;30.63;;;9.00;92.30;;;;;;5072223;28;20193;-78
2022/03/25 02:06:16;;;;;;;41.90;31.73;;;8.90;92.70;;;;;;5071832;28;20221;-79
2022/03/25 02:08:44;;;;;;;44.00;31.67;;;8.80;93.10;;;;;;5074237;28;20220;-79
2022/03/25 02:11:11;;;;;;;42.53;31.53;;;8.70;93.20;;;;;;5086835;28;20215;-79
2022/03/25 02:13:40;;;;;;;41.43;31.60;;;8.50;93.90;;;;;;5078023;28;20679;-79
2022/03/25 02:16:09;;;;;;;42.87;31.90;;;8.70;94.10;;;;;;5080124;28;20217;-78
2022/03/25 02:18:37;;;;;;;38.63;30.40;;;8.60;93.50;;;;;;5075285;28;20193;-78
2022/03/25 02:21:05;;;;;;;39.10;30.27;;;8.50;93.70;;;;;;5071998;28;20208;-79
2022/03/25 02:23:34;;;;;;;44.87;32.87;;;8.50;94.00;;;;;;5080462;28;20554;-79
2022/03/25 02:26:03;;;;;;;44.70;32.63;;;8.40;93.90;;;;;;5075989;28;20221;-79
2022/03/25 02:28:33;;;;;;;43.47;33.40;;;8.40;94.30;;;;;;5074214;28;20213;-79
2022/03/25 02:31:01;;;;;;;43.20;32.83;;;8.20;94.30;;;;;;5084054;28;20201;-79
2022/03/25 02:33:29;;;;;;;41.97;32.43;;;8.40;94.10;;;;;;5085529;28;20204;-79
2022/03/25 02:35:56;;;;;;;44.93;32.73;;;8.50;93.60;;;;;;5074749;28;20225;-79
2022/03/25 02:38:25;;;;;;;48.70;33.53;;;8.30;93.40;;;;;;5078513;28;20197;-81
2022/03/25 02:40:55;;;;;;;43.37;32.43;;;8.40;93.70;;;;;;5079932;28;20190;-79
2022/03/25 02:43:27;;;;;;;43.73;33.53;;;8.10;94.90;;;;;;5074768;28;20194;-80
2022/03/25 02:46:07;;;;;;;46.60;34.27;;;8.20;94.80;;;;;;5083933;28;20220;-79
2022/03/25 02:48:39;;;;;;;46.03;34.67;;;8.10;94.80;;;;;;5078180;28;20679;-79
2022/03/25 02:51:07;;;;;;;43.57;32.93;;;8.10;94.90;;;;;;5080591;28;20224;-80
2022/03/25 02:53:34;;;;;;;48.50;33.00;;;8.00;95.10;;;;;;5072343;28;20201;-80
2022/03/25 02:56:04;;;;;;;44.67;32.80;;;8.00;95.20;;;;;;5079923;28;20343;-80
2022/03/25 02:58:31;;;;;;;43.80;32.63;;;8.00;95.80;;;;;;5076483;28;20205;-79
2022/03/25 03:00:58;;;;;;;43.10;32.83;;;8.10;96.00;;;;;;5077871;28;20205;-79
2022/03/25 03:03:26;;;;;;;45.07;34.10;;;7.90;96.20;;;;;;5080952;28;20202;-79
2022/03/25 03:05:56;;;;;;;46.07;33.10;;;7.90;96.80;;;;;;5082497;28;20214;-79
2022/03/25 03:08:23;;;;;;;47.03;33.30;;;8.00;95.70;;;;;;5072414;28;20663;-79
2022/03/25 03:10:51;;;;;;;40.73;31.13;;;7.80;96.20;;;;;;5081940;28;20201;-80
2022/03/25 03:13:22;;;;;;;43.30;32.53;;;7.80;96.70;;;;;;5079201;28;20205;-79
2022/03/25 03:15:49;;;;;;;44.97;33.17;;;7.80;96.70;;;;;;5076292;28;20216;-80
2022/03/25 03:18:20;;;;;;;44.47;33.33;;;7.90;95.90;;;;;;5075662;28;20206;-79
2022/03/25 03:20:48;;;;;;;43.60;33.90;;;8.00;96.00;;;;;;5073507;28;20197;-79
2022/03/25 03:23:15;;;;;;;43.53;32.37;;;7.90;96.10;;;;;;5078482;28;20198;-80
2022/03/25 03:25:43;;;;;;;44.07;33.23;;;7.90;95.80;;;;;;5074815;28;20718;-80
2022/03/25 03:28:11;;;;;;;43.77;32.77;;;7.90;96.20;;;;;;5080372;28;20200;-80
2022/03/25 03:30:40;;;;;;;43.33;32.67;;;7.90;96.90;;;;;;5083801;28;20501;-79
2022/03/25 03:33:08;;;;;;;48.63;33.20;;;7.80;96.80;;;;;;5078211;28;20209;-79
2022/03/25 03:35:36;;;;;;;46.40;34.10;;;7.80;97.40;;;;;;5075283;28;20218;-79
2022/03/25 03:38:04;;;;;;;49.67;36.10;;;7.70;96.80;;;;;;5077045;28;20227;-79
2022/03/25 03:40:31;;;;;;;47.43;35.50;;;7.70;95.40;;;;;;5078362;28;20197;-80
2022/03/25 03:42:59;;;;;;;47.00;33.57;;;7.60;95.80;;;;;;5084717;28;20193;-79
2022/03/25 03:45:32;;;;;;;44.50;33.40;;;7.40;96.80;;;;;;5077465;28;20231;-79
2022/03/25 03:48:00;;;;;;;42.43;32.23;;;7.20;97.80;;;;;;5075624;28;20212;-79
2022/03/25 03:50:31;;;;;;;45.13;33.33;;;7.20;98.60;;;;;;5085094;28;20670;-80
2022/03/25 03:53:01;;;;;;;47.90;33.53;;;7.20;98.70;;;;;;5076634;28;20198;-80
2022/03/25 03:55:29;;;;;;;46.53;33.37;;;7.00;99.00;;;;;;5081880;28;20225;-79
2022/03/25 03:57:59;;;;;;;43.00;30.80;;;7.20;99.50;;;;;;5078595;28;20216;-79
2022/03/25 04:00:26;;;;;;;45.47;34.57;;;7.40;99.20;;;;;;5075958;28;20197;-79
2022/03/25 04:02:55;;;;;;;44.90;34.07;;;7.50;98.20;;;;;;5090115;28;20186;-80
2022/03/25 04:05:24;;;;;;;51.83;34.40;;;7.60;97.50;;;;;;5080641;28;20213;-79
2022/03/25 04:07:52;;;;;;;47.47;34.77;;;7.50;97.50;;;;;;5080375;28;20647;-80
2022/03/25 04:10:20;;;;;;;43.07;33.30;;;7.50;98.10;;;;;;5085209;28;20205;-79
2022/03/25 04:12:47;;;;;;;43.33;32.03;;;7.50;97.80;;;;;;5075855;28;20193;-78
2022/03/25 04:15:16;;;;;;;47.23;33.47;;;7.50;97.90;;;;;;5083522;28;20221;-79
2022/03/25 04:17:45;;;;;;;49.73;34.70;;;7.30;97.20;;;;;;5077145;28;20212;-79
2022/03/25 04:20:30;;;;;;;45.50;32.33;;;7.20;98.40;;;;;;5087089;28;20694;-79
2022/03/25 04:22:58;;;;;;;45.37;34.13;;;7.30;98.60;;;;;;5084788;28;20192;-79
2022/03/25 04:25:25;;;;;;;45.27;32.83;;;7.30;98.50;;;;;;5077813;28;20214;-78
2022/03/25 04:27:54;;;;;;;42.07;31.60;;;7.20;98.90;;;;;;5081850;28;20193;-79
2022/03/25 04:30:23;;;;;;;47.10;32.23;;;7.30;98.60;;;;;;5082493;28;20208;-79
2022/03/25 04:32:51;;;;;;;43.77;32.70;;;7.20;98.40;;;;;;5086555;28;20212;-79
2022/03/25 04:35:19;;;;;;;45.00;32.87;;;7.30;98.40;;;;;;5082457;28;20218;-79
2022/03/25 04:37:48;;;;;;;44.53;33.03;;;7.20;98.30;;;;;;5079253;28;20683;-79
2022/03/25 04:40:18;;;;;;;45.07;32.53;;;7.20;98.30;;;;;;5084510;28;20193;-79
2022/03/25 04:42:46;;;;;;;45.17;32.53;;;7.30;98.80;;;;;;5083842;28;20212;-79
2022/03/25 04:45:13;;;;;;;44.67;32.60;;;7.40;98.20;;;;;;5082467;28;20208;-79
2022/03/25 04:47:41;;;;;;;43.20;31.73;;;7.40;98.10;;;;;;5086873;28;20193;-79
2022/03/25 04:50:09;;;;;;;44.43;32.97;;;7.10;98.40;;;;;;5087558;28;20201;-79
2022/03/25 04:52:37;;;;;;;45.47;31.87;;;7.10;99.40;;;;;;5087743;28;20201;-79
2022/03/25 04:55:06;;;;;;;47.90;31.97;;;7.10;99.00;;;;;;5085476;28;20221;-79
2022/03/25 04:57:34;;;;;;;45.37;31.33;;;7.00;99.60;;;;;;5086004;28;20201;-79
2022/03/25 05:00:01;;;;;;;44.40;31.73;;;6.80;99.90;;;;;;5087372;28;20209;-79
2022/03/25 05:02:28;;;;;;;44.57;30.03;;;7.20;99.90;;;;;;5092839;28;20212;-79
2022/03/25 05:04:56;;;;;;;39.80;30.63;;;7.10;98.90;;;;;;5079456;28;20217;-79
2022/03/25 05:07:23;;;;;;;41.13;31.47;;;6.90;99.50;;;;;;5084359;28;20701;-79
2022/03/25 05:09:52;;;;;;;45.20;31.23;;;7.00;99.90;;;;;;5080752;28;20651;-79
2022/03/25 05:12:21;;;;;;;42.43;30.87;;;7.10;99.20;;;;;;5086839;28;20200;-78
2022/03/25 05:14:48;;;;;;;44.87;32.63;;;6.60;99.20;;;;;;5082493;28;20224;-79
2022/03/25 05:17:15;;;;;;;44.93;32.23;;;7.00;99.80;;;;;;5080756;28;20209;-78
2022/03/25 05:19:43;;;;;;;46.17;31.97;;;6.70;99.60;;;;;;5086512;28;20197;-80
2022/03/25 05:22:10;;;;;;;44.30;33.13;;;6.90;99.90;;;;;;5087104;28;20193;-78
2022/03/25 05:24:40;;;;;;;43.00;31.13;;;6.90;99.10;;;;;;5078756;28;20576;-78
2022/03/25 05:27:08;;;;;;;41.73;31.43;;;6.70;99.90;;;;;;5081988;28;20205;-78
2022/03/25 05:29:37;;;;;;;41.73;30.30;;;6.80;99.80;;;;;;5081999;28;20193;-77
2022/03/25 05:32:05;;;;;;;46.80;32.03;;;6.70;99.90;;;;;;5100736;27;20207;-77
2022/03/25 05:34:32;;;;;;;43.07;31.07;;;6.80;99.90;;;;;;5087605;28;20658;-79
2022/03/25 05:36:59;;;;;;;41.67;30.80;;;6.80;99.40;;;;;;5078465;28;20206;-77
2022/03/25 05:39:29;;;;;;;45.43;33.10;;;6.90;99.70;;;;;;5085177;28;20188;-77
2022/03/25 05:41:58;;;;;;;44.33;32.43;;;6.80;99.90;;;;;;5078303;28;20205;-77
2022/03/25 05:44:25;;;;;;;40.43;31.47;;;7.00;99.00;;;;;;5072489;28;20212;-78
2022/03/25 05:46:54;;;;;;;42.93;32.30;;;7.00;99.80;;;;;;5077118;28;20207;-78
2022/03/25 05:49:21;;;;;;;47.13;34.77;;;6.90;99.70;;;;;;5076829;28;20202;-77
2022/03/25 05:51:49;;;;;;;46.23;32.87;;;7.00;99.90;;;;;;5090074;28;20196;-77
2022/03/25 05:54:16;;;;;;;48.17;33.80;;;7.00;99.90;;;;;;5076167;28;20201;-77
2022/03/25 05:56:44;;;;;;;44.97;32.50;;;6.90;99.50;;;;;;5075706;28;20216;-77
2022/03/25 05:59:11;;;;;;;46.77;33.97;;;6.90;99.90;;;;;;5075096;28;20217;-76
2022/03/25 06:01:40;;;;;;;41.93;32.77;;;6.90;99.90;;;;;;5080950;28;20219;-77
2022/03/25 06:04:09;;;;;;;46.47;33.43;;;6.70;99.90;;;;;;5082506;28;20201;-77
2022/03/25 06:06:36;;;;;;;46.80;34.37;;;6.90;99.90;;;;;;5081564;28;20238;-77
2022/03/25 06:09:03;;;;;;;48.03;35.27;;;7.10;99.30;;;;;;5073380;28;20224;-77
2022/03/25 06:11:31;;;;;;;49.07;34.97;;;6.90;99.90;;;;;;5073810;28;20210;-77
2022/03/25 06:13:58;;;;;;;47.40;32.83;;;7.10;99.90;;;;;;5072361;28;20322;-77
2022/03/25 06:16:25;;;;;;;44.33;32.50;;;7.10;99.90;;;;;;5075307;28;20225;-77
2022/03/25 06:18:55;;;;;;;43.83;33.60;;;7.00;99.90;;;;;;5077493;28;20212;-77
2022/03/25 06:21:25;;;;;;;44.20;33.93;;;7.10;99.90;;;;;;5071833;28;20212;-77
2022/03/25 06:23:52;;;;;;;49.23;34.80;;;7.20;99.90;;;;;;5074515;28;20217;-76
2022/03/25 06:26:20;;;;;;;47.63;34.23;;;7.30;99.90;;;;;;5075736;28;20212;-77
2022/03/25 06:28:47;;;;;;;47.20;34.73;;;7.30;99.90;;;;;;5077984;28;20189;-75
2022/03/25 06:31:15;;;;;;;49.50;34.97;;;7.30;99.90;;;;;;5074883;28;20219;-75
2022/03/25 06:33:42;;;;;;;50.77;35.27;;;7.30;99.90;;;;;;5075048;28;20204;-76
2022/03/25 06:36:13;;;;;;;57.00;39.37;;;7.70;99.70;;;;;;5077965;28;20232;-76
2022/03/25 06:38:42;;;;;;;52.37;38.30;;;7.70;99.10;;;;;;5076523;28;20236;-74
2022/03/25 06:41:10;;;;;;;56.10;36.90;;;7.70;99.50;;;;;;5074498;28;20202;-74
2022/03/25 06:43:37;;;;;;;53.67;37.47;;;7.70;99.70;;;;;;5092116;28;20193;-74
2022/03/25 06:46:05;;;;;;;54.03;38.03;;;7.70;99.90;;;;;;5078453;28;20232;-74
2022/03/25 06:48:34;;;;;;;54.87;38.77;;;7.80;99.60;;;;;;5074199;28;20212;-74
2022/03/25 06:51:04;;;;;;;53.77;37.43;;;7.90;98.60;;;;;;5076462;28;20201;-74
2022/03/25 06:53:32;;;;;;;54.80;37.97;;;8.00;98.20;;;;;;5074705;28;20204;-74
2022/03/25 06:56:01;;;;;;;51.30;37.60;;;8.30;97.50;;;;;;5073338;28;20714;-74
2022/03/25 06:58:30;;;;;;;52.37;38.17;;;8.30;97.50;;;;;;5081636;28;20224;-74
2022/03/25 07:00:58;;;;;;;55.07;39.23;;;8.40;97.40;;;;;;5085238;28;20197;-74
2022/03/25 07:03:26;;;;;;;54.97;39.57;;;8.50;98.10;;;;;;5082754;28;20201;-73
2022/03/25 07:05:54;;;;;;;58.33;40.70;;;8.80;98.00;;;;;;5081315;28;20227;-73
2022/03/25 07:08:22;;;;;;;60.40;42.53;;;9.00;95.80;;;;;;5079169;28;20189;-73
2022/03/25 07:10:50;;;;;;;57.57;40.87;;;9.00;95.60;;;;;;5078409;28;20213;-74
2022/03/25 07:13:19;;;;;;;59.47;41.83;;;9.20;95.20;;;;;;5077543;28;20205;-74
2022/03/25 07:15:47;;;;;;;55.83;42.63;;;9.20;95.20;;;;;;5073189;28;20769;-74
2022/03/25 07:18:14;;;;;;;58.33;41.47;;;9.20;95.30;;;;;;5073840;28;20240;-75
2022/03/25 07:20:41;;;;;;;55.87;42.00;;;9.30;95.50;;;;;;5080524;28;20197;-75
2022/03/25 07:23:09;;;;;;;59.83;43.50;;;9.50;95.50;;;;;;5078927;28;20216;-75
2022/03/25 07:25:37;;;;;;;59.83;42.00;;;9.40;95.50;;;;;;5074521;28;20221;-74
2022/03/25 07:28:04;;;;;;;57.23;42.03;;;9.60;95.40;;;;;;5085323;28;20563;-76
2022/03/25 07:30:34;;;;;;;58.57;43.17;;;9.70;95.40;;;;;;5085835;28;20650;-76
2022/03/25 07:33:01;;;;;;;57.33;40.90;;;9.80;95.30;;;;;;5070980;28;20217;-76
2022/03/25 07:35:28;;;;;;;55.30;41.97;;;9.90;95.10;;;;;;5084350;28;20706;-78
2022/03/25 07:37:56;;;;;;;59.93;42.47;;;10.20;94.50;;;;;;5081761;28;20205;-77
2022/03/25 07:40:23;;;;;;;64.27;44.90;;;10.30;93.90;;;;;;5080089;28;20213;-78
2022/03/25 07:42:51;;;;;;;59.77;44.77;;;10.30;93.80;;;;;;5094523;28;20196;-78
2022/03/25 07:45:19;;;;;;;53.90;42.10;;;10.20;93.90;;;;;;5107992;28;20208;-78
2022/03/25 07:47:50;;;;;;;57.90;42.70;;;10.50;93.70;;;;;;5074711;28;20673;-78
2022/03/25 07:50:20;;;;;;;54.17;42.10;;;10.60;93.20;;;;;;5090120;28;20197;-78
2022/03/25 07:52:49;;;;;;;60.43;43.40;;;10.70;93.00;;;;;;5087502;28;20205;-77
2022/03/25 07:55:18;;;;;;;51.95;39.22;;;10.70;93.20;;;;;;5078068;28;20214;-78
2022/03/25 07:57:46;;;;;;;54.60;38.25;;;10.80;91.90;;;;;;5081077;28;20212;-78
2022/03/25 08:00:14;;;;;;;51.17;38.58;;;10.80;91.70;;;;;;5095689;28;20217;-78
2022/03/25 08:02:43;;;;;;;51.53;40.47;;;11.00;91.60;;;;;;5073940;28;20193;-78
2022/03/25 08:05:13;;;;;;;52.45;39.45;;;11.00;91.20;;;;;;5081087;28;20228;-78
2022/03/25 08:07:42;;;;;;;53.10;41.08;;;11.10;91.20;;;;;;5093371;28;20204;-78
2022/03/25 08:10:10;;;;;;;54.20;40.58;;;11.40;90.80;;;;;;5092241;28;20193;-78
2022/03/25 08:12:37;;;;;;;52.35;40.97;;;11.50;90.20;;;;;;5082727;28;20208;-78
2022/03/25 08:15:07;;;;;;;55.47;41.25;;;11.50;90.20;;;;;;5092917;28;20225;-78
2022/03/25 08:17:46;;;;;;;56.50;40.42;;;11.60;90.00;;;;;;5093104;28;20205;-78
2022/03/25 08:20:20;;;;;;;56.20;39.65;;;11.50;90.50;;;;;;5086442;28;20221;-78
2022/03/25 08:22:48;;;;;;;53.53;41.08;;;11.70;90.50;;;;;;5082029;28;20200;-78
2022/03/25 08:28:01;;;;;;;53.75;41.33;;;12.00;88.70;;;;;;5087242;28;20196;-78
2022/03/25 08:30:30;;;;;;;54.10;40.28;;;12.00;88.90;;;;;;5094115;28;20539;-78
2022/03/25 08:33:03;;;;;;;52.35;39.30;;;12.20;88.20;;;;;;5091626;28;20200;-78
2022/03/25 08:35:32;;;;;;;49.65;40.03;;;12.30;87.00;;;;;;5085415;28;20217;-78
2022/03/25 08:38:00;;;;;;;55.05;39.72;;;12.30;86.50;;;;;;5083346;28;20212;-78
2022/03/25 08:40:30;;;;;;;54.50;39.75;;;12.40;86.40;;;;;;5073070;28;20214;-78
2022/03/25 08:42:57;;;;;;;49.83;37.88;;;12.50;86.50;;;;;;5081438;28;20679;-78
2022/03/25 08:45:25;;;;;;;50.00;37.83;;;12.50;85.40;;;;;;5093389;28;20217;-78
2022/03/25 08:47:52;;;;;;;49.47;36.63;;;12.60;85.70;;;;;;5093017;28;20185;-78
2022/03/25 08:50:22;;;;;;;45.53;34.67;;;12.60;83.20;;;;;;5077578;28;20197;-78
2022/03/25 08:52:53;;;;;;;47.80;33.80;;;12.70;82.60;;;;;;5093155;28;20283;-78
2022/03/25 08:55:21;;;;;;;45.97;33.85;;;13.00;82.10;;;;;;5080347;28;20820;-78
2022/03/25 08:57:50;;;;;;;46.13;34.15;;;13.00;81.50;;;;;;5072383;28;20194;-78
2022/03/25 09:00:19;;;;;;;46.05;33.63;;;13.00;80.30;;;;;;5073228;28;20233;-78
2022/03/25 09:02:47;;;;;;;42.75;32.63;;;13.20;80.10;;;;;;5072890;28;20208;-76
2022/03/25 09:05:16;;;;;;;43.88;34.13;;;13.20;80.50;;;;;;5073269;28;20217;-78
2022/03/25 09:07:45;;;;;;;42.15;31.48;;;13.40;80.20;;;;;;5081493;28;20193;-78
2022/03/25 09:10:16;;;;;;;44.67;31.67;;;13.40;79.40;;;;;;5072639;28;20209;-78
2022/03/25 09:12:44;;;;;;;43.75;32.97;;;13.50;79.40;;;;;;5088739;28;20279;-75
2022/03/25 09:15:13;;;;;;;42.65;31.30;;;13.50;78.00;;;;;;5091407;28;20670;-76
2022/03/25 09:17:41;;;;;;;41.42;30.27;;;13.60;77.50;;;;;;5092556;28;20204;-76
2022/03/25 09:20:10;;;;;;;39.55;30.30;;;13.60;75.90;;;;;;5092192;28;20225;-75
2022/03/25 09:22:37;;;;;;;38.15;28.83;;;13.70;75.20;;;;;;5083906;28;20197;-78
2022/03/25 09:25:07;;;;;;;42.25;30.42;;;13.80;74.40;;;;;;5091561;28;20224;-76
2022/03/25 09:27:36;;;;;;;40.38;29.17;;;13.90;73.50;;;;;;5078482;28;20201;-75
2022/03/25 09:30:04;;;;;;;36.47;28.15;;;14.00;75.10;;;;;;5072999;28;20202;-75
2022/03/25 09:32:31;;;;;;;41.85;30.05;;;14.10;72.80;;;;;;5075316;28;20209;-76
2022/03/25 09:35:13;;;;;;;41.38;30.15;;;14.10;72.50;;;;;;5092020;28;20605;-76
2022/03/25 09:37:42;;;;;;;44.25;30.25;;;14.10;71.70;;;;;;5091560;28;20208;-79
2022/03/25 09:40:13;;;;;;;38.58;29.27;;;14.20;71.80;;;;;;5088823;28;20213;-76
2022/03/25 09:42:42;;;;;;;34.65;27.13;;;14.40;71.30;;;;;;5088689;28;20208;-77
2022/03/25 09:45:11;;;;;;;42.83;28.83;;;14.50;69.60;;;;;;5081741;28;20220;-76
2022/03/25 09:47:41;;;;;;;40.58;28.95;;;14.60;69.50;;;;;;5084729;28;20193;-76
2022/03/25 09:50:12;;;;;;;35.95;28.55;;;14.70;69.60;;;;;;5079321;28;20215;-77
2022/03/25 09:52:41;;;;;;;44.88;30.40;;;14.70;68.30;;;;;;5078777;28;20681;-77
2022/03/25 09:55:09;;;;;;;41.25;28.67;;;14.80;67.70;;;;;;5075777;28;20229;-77
2022/03/25 09:57:37;;;;;;;38.00;27.48;;;14.90;68.60;;;;;;5077916;28;20559;-78
2022/03/25 10:00:08;;;;;;;33.45;24.48;;;15.00;67.00;;;;;;5080774;28;20224;-78
2022/03/25 10:02:39;;;;;;;38.67;24.77;;;14.90;64.00;;;;;;5080726;28;20278;-77
2022/03/25 10:05:15;;;;;;;32.13;23.65;;;15.10;62.10;;;;;;5072618;28;20224;-80
2022/03/25 10:07:46;;;;;;;30.33;22.77;;;15.30;60.10;;;;;;5087290;28;20215;-79
2022/03/25 10:10:15;;;;;;;34.25;23.75;;;15.40;60.00;;;;;;5084777;28;20201;-79
2022/03/25 10:12:45;;;;;;;34.75;25.15;;;15.50;62.20;;;;;;5071148;28;20185;-79
2022/03/25 10:15:20;;;;;;;38.55;23.63;;;15.70;61.50;;;;;;5076147;28;20691;-80
2022/03/25 10:17:53;;;;;;;29.30;22.52;;;15.60;59.80;;;;;;5083756;28;20200;-79
2022/03/25 10:20:24;;;;;;;33.83;23.98;;;15.90;59.70;;;;;;5085120;28;20209;-79
2022/03/25 10:22:59;;;;;;;32.63;22.90;;;15.80;59.50;;;;;;5082596;28;20678;-80
2022/03/25 10:25:38;;;;;;;34.55;25.08;;;15.80;59.40;;;;;;5072221;28;20228;-79
2022/03/25 10:28:18;;;;;;;37.78;24.98;;;15.90;60.40;;;;;;5083059;28;20201;-79
2022/03/25 10:30:51;;;;;;;32.67;24.13;;;15.90;60.50;;;;;;5081558;28;20197;-83
2022/03/25 10:33:28;;;;;;;34.80;25.30;;;16.00;60.80;;;;;;5076433;28;20201;-78
2022/03/25 10:35:59;;;;;;;37.95;25.73;;;16.10;60.90;;;;;;5077074;28;20227;-80
2022/03/25 10:38:28;;;;;;;33.45;25.27;;;16.20;61.90;;;;;;5071274;28;20690;-76
2022/03/25 10:40:57;;;;;;;30.08;24.00;;;16.20;61.60;;;;;;5083965;28;20298;-79
2022/03/25 10:43:26;;;;;;;32.65;25.30;;;16.20;61.80;;;;;;5072015;28;20757;-77
2022/03/25 10:45:54;;;;;;;33.13;24.17;;;16.60;61.80;;;;;;5068620;28;20217;-76
2022/03/25 10:48:24;;;;;;;34.92;24.27;;;16.50;61.60;;;;;;5085322;28;20208;-76
2022/03/25 10:51:07;;;;;;;35.38;24.00;;;16.40;60.70;;;;;;5082201;28;20201;-77
2022/03/25 10:53:36;;;;;;;35.80;24.23;;;16.50;63.20;;;;;;5070960;28;20212;-77
2022/03/25 10:56:06;;;;;;;35.28;24.58;;;16.40;61.80;;;;;;5078093;28;20259;-77
2022/03/25 10:58:35;;;;;;;33.67;23.25;;;16.70;62.80;;;;;;5076801;28;20208;-77
2022/03/25 11:01:05;;;;;;;28.17;22.17;;;16.90;60.10;;;;;;5076473;28;20213;-79
2022/03/25 11:03:34;;;;;;;30.80;23.30;;;16.90;61.00;;;;;;5084636;28;20197;-78
2022/03/25 11:06:01;;;;;;;30.80;23.80;;;17.00;58.80;;;;;;5076902;28;20221;-77
2022/03/25 11:08:30;;;;;;;31.65;24.13;;;16.80;59.10;;;;;;5077422;28;20212;-77
2022/03/25 11:10:59;;;;;;;31.50;23.95;;;17.00;59.00;;;;;;5082109;28;20209;-76
2022/03/25 11:13:27;;;;;;;34.25;25.17;;;17.10;58.00;;;;;;5078768;28;20212;-78
2022/03/25 11:15:56;;;;;;;30.80;23.75;;;16.80;59.30;;;;;;5080202;28;20221;-76
2022/03/25 11:18:28;;;;;;;33.22;23.98;;;16.70;59.10;;;;;;5088276;28;20208;-77
2022/03/25 11:21:05;;;;;;;31.52;24.10;;;17.10;59.80;;;;;;5080905;28;20216;-77
2022/03/25 11:23:37;;;;;;;30.95;23.35;;;17.10;59.20;;;;;;5086949;28;20203;-77
2022/03/25 11:26:08;;;;;;;32.50;24.58;;;17.50;58.60;;;;;;5079931;28;20224;-77
2022/03/25 11:28:56;;;;;;;33.75;23.98;;;17.20;58.50;;;;;;5082268;28;20201;-81
2022/03/25 11:31:24;;;;;;;33.85;24.63;;;17.40;59.80;;;;;;5084237;28;20193;-80
2022/03/25 11:34:11;;;;;;;32.85;23.67;;;17.60;57.80;;;;;;5073923;28;20210;-79
2022/03/25 11:36:43;;;;;;;31.70;23.83;;;18.10;57.80;;;;;;5085117;28;20216;-78
2022/03/25 11:39:24;;;;;;;30.65;24.50;;;17.70;57.30;;;;;;5074691;28;20193;-78
2022/03/25 11:41:53;;;;;;;31.67;24.05;;;17.70;57.30;;;;;;5072271;28;20693;-78
2022/03/25 11:44:25;;;;;;;32.17;24.13;;;17.50;57.10;;;;;;5074155;28;20223;-80
2022/03/25 11:47:16;;;;;;;30.85;24.60;;;17.60;57.70;;;;;;5071358;28;20694;-79
2022/03/25 11:49:45;;;;;;;34.35;23.83;;;17.30;56.70;;;;;;5081554;28;20204;-80
2022/03/25 11:52:36;;;;;;;35.30;24.20;;;18.00;57.10;;;;;;5076412;28;20197;-79
2022/03/25 11:55:09;;;;;;;28.80;22.52;;;18.30;55.70;;;;;;5081101;28;20237;-80
2022/03/25 11:57:37;;;;;;;27.35;21.40;;;17.70;57.40;;;;;;5080960;28;20201;-80
2022/03/25 12:00:08;;;;;;;31.92;22.90;;;17.70;57.50;;;;;;5080876;28;20646;-79
2022/03/25 12:02:37;;;;;;;30.08;22.90;;;17.90;56.80;;;;;;5076909;28;20217;-79
2022/03/25 12:05:36;;;;;;;26.90;21.58;;;18.00;56.00;;;;;;5073669;28;20622;-81
2022/03/25 12:08:23;;;;;;;29.38;22.92;;;18.20;55.80;;;;;;5070344;28;20206;-79
2022/03/25 12:10:52;;;;;;;26.42;22.02;;;18.70;55.90;;;;;;5069852;28;20213;-79
2022/03/25 12:13:20;;;;;;;29.75;21.75;;;18.40;55.60;;;;;;5075240;28;20185;-79
2022/03/25 12:15:49;;;;;;;33.53;22.58;;;18.20;55.70;;;;;;5082343;28;20220;-79
2022/03/25 12:18:39;;;;;;;26.35;19.20;;;18.40;55.10;;;;;;5078846;28;20201;-82
2022/03/25 12:21:21;;;;;;;26.98;22.25;;;18.60;54.40;;;;;;5074736;28;20679;-80
2022/03/25 12:23:56;;;;;;;28.52;21.17;;;18.70;53.80;;;;;;5078525;28;20197;-80
2022/03/25 12:26:31;;;;;;;27.58;22.02;;;19.00;53.90;;;;;;5074804;28;20232;-80
2022/03/25 12:28:58;;;;;;;26.63;21.17;;;19.20;53.10;;;;;;5077980;28;20197;-80
2022/03/25 12:31:26;;;;;;;28.15;21.50;;;19.30;51.90;;;;;;5079539;28;20568;-80
2022/03/25 12:33:54;;;;;;;30.42;22.00;;;19.40;51.50;;;;;;5079049;28;20197;-80
2022/03/25 12:36:24;;;;;;;27.48;21.08;;;20.00;51.40;;;;;;5076367;28;20232;-80
2022/03/25 12:38:55;;;;;;;28.50;21.70;;;19.70;50.90;;;;;;5074262;28;20207;-80
2022/03/25 12:41:32;;;;;;;32.53;22.77;;;20.20;50.10;;;;;;5078655;28;20227;-79
2022/03/25 12:44:00;;;;;;;31.58;23.13;;;19.60;50.30;;;;;;5080962;28;20561;-80
2022/03/25 12:46:30;;;;;;;27.20;21.73;;;20.30;50.80;;;;;;5079839;28;20224;-79
2022/03/25 12:49:04;;;;;;;25.98;22.10;;;20.70;49.00;;;;;;5081110;28;20220;-80